Terminal Aerodrome Forecast
Issued by NWS

Home | Current Version | Previous Version | Text Only | Print | Product List | Glossary On
Versions: 1 2 3 4 5 6 7 8 9 10 11 12
000
FTUS43 KEAX 141700
TAFSTJ
TAF
KSTJ 141721Z 1418/1518 16006KT P6SM SCT080
     FM150900 14005KT P6SM VCTS OVC035CB
     FM151400 33007KT P6SM VCSH BKN025=

USA.gov is the U.S. government's official web portal to all federal, state and local government web resources and services.